Roma, Texas
Current Conditions -  °F | °C
As of 10:53 PM on Thursday 30 Oct 2014 (Local Time) from KMFE Reporting Station
Clear Clear  
Wind Chill: 73°   Ceiling: Unl
Heat Index: 73°   Visibility: 10mi
Dew Point: 68°   Wind: 5mph
Humidity: 84%   Direction: 110°ESE
Pressure: 30.08"   Gusts: NA
Location:  26.4°N, 99.01°W
Report Text: KMFE 310353Z 11004KT 10SM CLR 23/20 A3008 RMK AO2 SLP184 T02280200
Loading
Personal Weather Stations






























Interactive Weather Map
Tropical Storm Tracking
New forecast layout! Learn more

10-Day Weather Forecast

Advertisements
Track Severe Weather on mobile